Time;durP1;ratioP1;P1;durP2;ratioP2;P2;SDS_P1;SDS_P2;PMS_P1;PMS_P2;Temp;Humidity;BMP_temperature;BMP_pressure;BME280_temperature;BME280_humidity;BME280_pressure;Samples;Min_cycle;Max_cycle;Signal;HPM_P1;HPM_P2
2023/09/22 00:00:03;;;;;;;591.05;401.73;;;;;;;;;;5072035;28;20427;-64
2023/09/22 00:02:31;;;;;;;598.40;412.27;;;;;;;;;;5079495;28;20520;-65
2023/09/22 00:04:58;;;;;;;604.70;393.90;;;;;;;;;;5079475;28;20961;-64
2023/09/22 00:07:25;;;;;;;615.95;461.27;;;;;;;;;;5080013;28;20466;-64
2023/09/22 00:09:52;;;;;;;621.83;462.30;;;;;;;;;;5075689;28;20525;-64
2023/09/22 00:12:20;;;;;;;602.75;355.00;;;;;;;;;;5081080;28;20452;-64
2023/09/22 00:14:47;;;;;;;596.92;369.75;;;;;;;;;;5074360;28;20438;-64
2023/09/22 00:17:16;;;;;;;593.80;348.85;;;;;;;;;;5068540;28;20599;-63
2023/09/22 00:19:45;;;;;;;584.88;376.73;;;;;;;;;;5076071;28;20426;-64
2023/09/22 00:22:12;;;;;;;578.47;360.80;;;;;;;;;;5082950;28;20936;-63
2023/09/22 00:24:39;;;;;;;579.42;394.23;;;;;;;;;;5075465;28;20444;-63
2023/09/22 00:27:10;;;;;;;584.28;409.38;;;;;;;;;;5084638;28;20457;-63
2023/09/22 00:29:37;;;;;;;607.42;418.73;;;;;;;;;;5086025;28;20865;-63
2023/09/22 00:32:04;;;;;;;608.45;444.48;;;;;;;;;;5077923;28;20511;-63
2023/09/22 00:34:36;;;;;;;611.40;445.95;;;;;;;;;;5071818;28;20864;-63
2023/09/22 00:37:03;;;;;;;618.45;457.40;;;;;;;;;;5078918;28;20481;-63
2023/09/22 00:39:30;;;;;;;626.35;459.48;;;;;;;;;;5066924;28;20432;-63
2023/09/22 00:41:57;;;;;;;634.80;479.90;;;;;;;;;;5074801;28;20427;-63
2023/09/22 00:44:25;;;;;;;649.15;518.03;;;;;;;;;;5076650;28;20425;-63
2023/09/22 00:46:52;;;;;;;660.45;517.55;;;;;;;;;;5083844;28;21003;-63
2023/09/22 00:49:19;;;;;;;667.75;537.72;;;;;;;;;;5079935;28;20514;-63
2023/09/22 00:51:47;;;;;;;667.10;469.33;;;;;;;;;;5081136;28;20904;-63
2023/09/22 00:54:14;;;;;;;682.53;566.70;;;;;;;;;;5076862;28;20484;-63
2023/09/22 00:56:41;;;;;;;689.60;569.80;;;;;;;;;;5073732;28;20429;-63
2023/09/22 00:59:08;;;;;;;692.60;540.42;;;;;;;;;;5088182;28;20433;-63
2023/09/22 01:01:38;;;;;;;731.45;516.00;;;;;;;;;;5074767;28;20430;-63
2023/09/22 01:04:09;;;;;;;730.73;505.73;;;;;;;;;;5066351;28;20435;-64
2023/09/22 01:06:37;;;;;;;727.70;579.30;;;;;;;;;;5068659;28;20421;-63
2023/09/22 01:09:06;;;;;;;726.88;586.05;;;;;;;;;;5074224;28;20431;-63
2023/09/22 01:11:34;;;;;;;735.45;589.03;;;;;;;;;;5069441;28;20430;-63
2023/09/22 01:14:02;;;;;;;736.70;598.92;;;;;;;;;;5077990;28;20512;-63
2023/09/22 01:16:29;;;;;;;738.30;605.40;;;;;;;;;;5077464;28;20427;-63
2023/09/22 01:18:57;;;;;;;739.30;613.20;;;;;;;;;;5078381;28;20423;-63
2023/09/22 01:21:31;;;;;;;750.80;649.15;;;;;;;;;;5078846;28;20427;-63
2023/09/22 01:23:59;;;;;;;747.05;631.90;;;;;;;;;;5068836;28;20575;-63
2023/09/22 01:26:27;;;;;;;749.13;638.08;;;;;;;;;;5083345;28;20426;-64
2023/09/22 01:28:54;;;;;;;759.70;662.00;;;;;;;;;;5070257;28;20427;-64
2023/09/22 01:31:22;;;;;;;746.83;636.22;;;;;;;;;;5081216;28;20430;-64
2023/09/22 01:33:52;;;;;;;755.95;655.22;;;;;;;;;;5067986;28;20539;-64
2023/09/22 01:36:19;;;;;;;780.58;694.58;;;;;;;;;;5066469;28;20427;-64
2023/09/22 01:38:46;;;;;;;788.20;701.85;;;;;;;;;;5059725;28;20791;-64
2023/09/22 01:41:13;;;;;;;780.10;693.70;;;;;;;;;;5082087;28;20426;-64
2023/09/22 01:43:41;;;;;;;787.58;701.58;;;;;;;;;;5083611;28;20422;-64
2023/09/22 01:46:08;;;;;;;795.25;708.90;;;;;;;;;;5080728;28;21013;-64
2023/09/22 01:48:36;;;;;;;802.15;715.58;;;;;;;;;;5070632;28;20430;-64
2023/09/22 01:51:03;;;;;;;807.80;720.88;;;;;;;;;;5079768;28;20779;-64
2023/09/22 01:53:35;;;;;;;805.15;718.42;;;;;;;;;;5079489;28;20431;-64
2023/09/22 01:56:02;;;;;;;537.38;479.75;;;;;;;;;;5079011;28;20592;-64
2023/09/22 01:58:29;;;;;;;1.02;0.60;;;;;;;;;;5069435;28;20502;-64
2023/09/22 02:00:58;;;;;;;1.13;0.80;;;;;;;;;;5072517;28;20504;-64
2023/09/22 02:03:31;;;;;;;2.60;0.70;;;;;;;;;;5067999;28;20506;-64
2023/09/22 02:05:59;;;;;;;0.77;0.60;;;;;;;;;;5083125;28;20429;-65
2023/09/22 02:08:26;;;;;;;1.25;0.80;;;;;;;;;;5083301;28;20524;-65
2023/09/22 02:10:53;;;;;;;1.75;0.70;;;;;;;;;;5078960;28;20527;-64
2023/09/22 02:13:23;;;;;;;2.10;1.10;;;;;;;;;;5066610;28;20425;-64
2023/09/22 02:15:52;;;;;;;1.75;1.75;;;;;;;;;;5082716;28;20458;-64
2023/09/22 02:18:20;;;;;;;22.55;21.02;;;;;;;;;;5078617;28;20489;-64
2023/09/22 02:20:47;;;;;;;26.07;24.60;;;;;;;;;;5061442;28;20546;-64
2023/09/22 02:23:15;;;;;;;66.05;61.60;;;;;;;;;;5079096;28;20815;-63
2023/09/22 02:25:42;;;;;;;68.85;64.18;;;;;;;;;;5078909;28;20448;-63
2023/09/22 02:28:09;;;;;;;120.85;112.50;;;;;;;;;;5088277;28;20429;-63
2023/09/22 02:30:37;;;;;;;155.05;143.50;;;;;;;;;;5079501;28;20514;-64
2023/09/22 02:33:05;;;;;;;596.63;534.00;;;;;;;;;;5086175;28;20426;-64
2023/09/22 02:35:32;;;;;;;578.47;520.47;;;;;;;;;;5087279;28;20513;-64
2023/09/22 02:38:00;;;;;;;226.60;208.48;;;;;;;;;;5080620;28;20426;-64
2023/09/22 02:40:27;;;;;;;570.13;515.78;;;;;;;;;;5082114;28;20455;-63
2023/09/22 02:42:54;;;;;;;566.22;515.40;;;;;;;;;;5081870;28;21179;-63
2023/09/22 02:45:22;;;;;;;583.38;521.05;;;;;;;;;;5070422;28;20441;-63
2023/09/22 02:47:53;;;;;;;572.38;515.65;;;;;;;;;;5074159;28;20427;-65
2023/09/22 02:50:22;;;;;;;338.88;310.15;;;;;;;;;;5077881;28;20426;-63
2023/09/22 02:52:49;;;;;;;439.33;401.65;;;;;;;;;;5073972;28;20426;-63
2023/09/22 02:55:16;;;;;;;359.30;328.80;;;;;;;;;;5077259;28;20426;-64
2023/09/22 02:57:47;;;;;;;483.05;442.52;;;;;;;;;;5082655;28;20510;-64
2023/09/22 03:00:17;;;;;;;567.20;514.53;;;;;;;;;;5082991;28;20425;-64
2023/09/22 03:02:46;;;;;;;567.80;512.97;;;;;;;;;;5070383;28;20429;-65
2023/09/22 03:05:15;;;;;;;553.00;503.75;;;;;;;;;;5082970;28;20934;-64
2023/09/22 03:07:47;;;;;;;558.17;506.63;;;;;;;;;;5084568;28;21136;-64
2023/09/22 03:10:23;;;;;;;556.03;506.23;;;;;;;;;;5075957;28;21109;-65
2023/09/22 03:12:52;;;;;;;551.40;504.65;;;;;;;;;;5078285;28;20433;-66
2023/09/22 03:15:20;;;;;;;563.10;514.03;;;;;;;;;;5071127;28;20431;-67
2023/09/22 03:17:47;;;;;;;571.10;519.13;;;;;;;;;;5061976;28;20441;-66
2023/09/22 03:20:21;;;;;;;718.15;495.92;;;;;;;;;;5078200;28;20426;-65
2023/09/22 03:22:48;;;;;;;695.63;492.67;;;;;;;;;;5078889;28;20433;-64
2023/09/22 03:25:16;;;;;;;564.88;506.08;;;;;;;;;;5081573;28;20432;-64
2023/09/22 03:27:43;;;;;;;580.85;513.45;;;;;;;;;;5080034;28;20424;-64
2023/09/22 03:30:11;;;;;;;561.35;514.22;;;;;;;;;;5081037;28;20479;-64
2023/09/22 03:32:39;;;;;;;652.65;506.65;;;;;;;;;;5075465;28;20439;-64
2023/09/22 03:35:08;;;;;;;582.60;499.83;;;;;;;;;;5077517;28;20453;-64
2023/09/22 03:37:36;;;;;;;560.38;506.17;;;;;;;;;;5083728;28;20428;-64
2023/09/22 03:40:13;;;;;;;259.08;238.20;;;;;;;;;;5086512;28;20516;-64
2023/09/22 03:42:44;;;;;;;237.52;218.65;;;;;;;;;;5070763;28;20430;-64
2023/09/22 03:45:18;;;;;;;276.73;253.70;;;;;;;;;;5074116;28;20431;-64
2023/09/22 03:47:46;;;;;;;68.03;63.75;;;;;;;;;;5075286;28;20926;-64
2023/09/22 03:50:13;;;;;;;95.70;89.47;;;;;;;;;;5057861;28;20431;-64
2023/09/22 03:52:42;;;;;;;313.63;286.92;;;;;;;;;;5076225;28;20436;-64
2023/09/22 03:55:14;;;;;;;456.27;411.30;;;;;;;;;;5071897;28;20431;-64
2023/09/22 03:57:41;;;;;;;419.25;378.85;;;;;;;;;;5077774;28;20434;-64
2023/09/22 04:00:17;;;;;;;404.60;368.58;;;;;;;;;;5084749;28;20453;-64
2023/09/22 04:02:46;;;;;;;530.58;481.33;;;;;;;;;;5084428;28;20499;-64
2023/09/22 04:05:13;;;;;;;532.67;478.83;;;;;;;;;;5084316;28;20520;-64
2023/09/22 04:07:41;;;;;;;511.13;465.03;;;;;;;;;;5066902;28;20440;-65
2023/09/22 04:10:10;;;;;;;295.95;271.83;;;;;;;;;;5081103;28;20910;-65
2023/09/22 04:12:38;;;;;;;244.52;225.32;;;;;;;;;;5092601;28;20963;-64
2023/09/22 04:15:06;;;;;;;196.80;181.97;;;;;;;;;;5078750;28;22967;-65
2023/09/22 04:17:34;;;;;;;205.73;190.20;;;;;;;;;;5080216;28;20451;-65
2023/09/22 04:20:07;;;;;;;113.43;106.10;;;;;;;;;;5076464;28;20586;-65
2023/09/22 04:22:35;;;;;;;222.27;205.47;;;;;;;;;;5081498;28;20417;-65
2023/09/22 04:25:08;;;;;;;248.23;229.05;;;;;;;;;;5068762;28;20786;-65
2023/09/22 04:27:42;;;;;;;280.90;258.37;;;;;;;;;;5090853;28;20584;-65
2023/09/22 04:30:16;;;;;;;334.30;307.35;;;;;;;;;;5084637;28;20430;-65
2023/09/22 04:32:44;;;;;;;400.27;368.05;;;;;;;;;;5082825;28;20508;-64
2023/09/22 04:35:11;;;;;;;348.02;320.13;;;;;;;;;;5085121;28;20975;-65
2023/09/22 04:37:40;;;;;;;543.42;497.35;;;;;;;;;;5086716;28;20461;-65
2023/09/22 04:40:23;;;;;;;629.28;487.00;;;;;;;;;;5077622;28;20526;-64
2023/09/22 04:42:50;;;;;;;719.67;528.33;;;;;;;;;;5080950;28;21130;-65
2023/09/22 04:45:18;;;;;;;732.53;523.40;;;;;;;;;;5079786;28;20423;-65
2023/09/22 04:47:47;;;;;;;735.05;515.90;;;;;;;;;;5058150;28;20426;-65
2023/09/22 04:50:17;;;;;;;731.97;548.55;;;;;;;;;;5074626;28;20431;-65
2023/09/22 04:52:49;;;;;;;739.55;546.72;;;;;;;;;;5082635;28;20434;-65
2023/09/22 04:55:16;;;;;;;735.50;541.42;;;;;;;;;;5064072;28;20459;-64
2023/09/22 04:57:44;;;;;;;737.30;563.47;;;;;;;;;;5069400;28;20565;-64
2023/09/22 05:00:21;;;;;;;744.53;590.15;;;;;;;;;;5083041;28;20447;-64
2023/09/22 05:02:49;;;;;;;743.40;596.00;;;;;;;;;;5077834;28;20426;-65
2023/09/22 05:05:18;;;;;;;744.70;581.20;;;;;;;;;;5080844;28;20854;-65
2023/09/22 05:07:46;;;;;;;754.00;598.17;;;;;;;;;;5084533;28;20421;-65
2023/09/22 05:10:16;;;;;;;759.85;634.75;;;;;;;;;;5072756;28;20429;-65
2023/09/22 05:12:43;;;;;;;760.13;648.88;;;;;;;;;;5080190;28;20431;-65
2023/09/22 05:15:10;;;;;;;755.47;651.55;;;;;;;;;;5079193;28;20425;-65
2023/09/22 05:17:40;;;;;;;756.92;662.65;;;;;;;;;;5082552;28;20484;-65
2023/09/22 05:20:13;;;;;;;744.65;647.42;;;;;;;;;;5073960;28;20443;-65
2023/09/22 05:22:41;;;;;;;743.03;645.35;;;;;;;;;;5082280;28;20929;-65
2023/09/22 05:25:09;;;;;;;735.47;638.22;;;;;;;;;;5084365;28;20462;-65
2023/09/22 05:27:42;;;;;;;719.33;612.15;;;;;;;;;;5084015;28;20911;-64
2023/09/22 05:30:10;;;;;;;707.20;536.53;;;;;;;;;;5079736;28;20426;-65
2023/09/22 05:32:38;;;;;;;698.38;563.33;;;;;;;;;;5075235;28;20429;-65
2023/09/22 05:35:08;;;;;;;696.38;606.35;;;;;;;;;;5075469;28;21530;-65
2023/09/22 05:37:38;;;;;;;676.50;544.28;;;;;;;;;;5078810;28;20432;-65
2023/09/22 05:40:11;;;;;;;658.85;478.02;;;;;;;;;;5080520;28;21828;-65
2023/09/22 05:42:39;;;;;;;651.67;514.28;;;;;;;;;;5074883;28;20814;-65
2023/09/22 05:45:07;;;;;;;639.50;494.47;;;;;;;;;;5071557;28;20430;-64
2023/09/22 05:47:34;;;;;;;639.10;549.25;;;;;;;;;;5083565;28;20461;-64
2023/09/22 05:50:06;;;;;;;636.30;538.67;;;;;;;;;;5056549;28;20917;-64
2023/09/22 05:52:39;;;;;;;625.08;510.40;;;;;;;;;;5072541;28;20431;-65
2023/09/22 05:55:10;;;;;;;632.03;533.72;;;;;;;;;;5066627;28;20510;-65
2023/09/22 05:57:38;;;;;;;631.00;516.38;;;;;;;;;;5070375;28;20510;-65
2023/09/22 06:00:17;;;;;;;643.80;548.05;;;;;;;;;;5082751;28;20428;-65
2023/09/22 06:02:49;;;;;;;635.72;461.63;;;;;;;;;;5080877;28;20423;-65
2023/09/22 06:05:18;;;;;;;640.42;447.75;;;;;;;;;;5080849;28;20790;-65
2023/09/22 06:07:45;;;;;;;645.45;469.85;;;;;;;;;;5081691;28;20467;-65
2023/09/22 06:10:12;;;;;;;651.15;439.58;;;;;;;;;;5079232;28;20835;-64
2023/09/22 06:12:39;;;;;;;662.67;434.88;;;;;;;;;;5080702;28;20475;-65
2023/09/22 06:15:12;;;;;;;675.53;500.52;;;;;;;;;;5071266;28;20449;-65
2023/09/22 06:17:42;;;;;;;691.45;552.35;;;;;;;;;;5061641;28;20431;-65
2023/09/22 06:20:15;;;;;;;709.95;545.95;;;;;;;;;;5072391;28;20431;-65
2023/09/22 06:22:43;;;;;;;716.20;523.55;;;;;;;;;;5081048;28;20426;-66
2023/09/22 06:25:13;;;;;;;713.03;509.10;;;;;;;;;;5077887;28;20431;-64
2023/09/22 06:27:41;;;;;;;718.22;509.52;;;;;;;;;;5080267;28;20465;-65
2023/09/22 06:30:11;;;;;;;729.92;605.17;;;;;;;;;;5082326;28;20457;-64
2023/09/22 06:32:42;;;;;;;721.03;550.67;;;;;;;;;;5082875;28;20433;-65
2023/09/22 06:35:10;;;;;;;722.85;543.83;;;;;;;;;;5077986;28;21077;-64
2023/09/22 06:37:39;;;;;;;726.60;587.45;;;;;;;;;;5077567;28;20461;-66
2023/09/22 06:40:11;;;;;;;732.30;589.80;;;;;;;;;;5074133;28;20504;-65
2023/09/22 06:42:40;;;;;;;737.25;584.25;;;;;;;;;;5080582;28;20422;-65
2023/09/22 06:45:11;;;;;;;737.25;605.38;;;;;;;;;;5073292;28;20950;-65
2023/09/22 06:47:38;;;;;;;747.08;640.05;;;;;;;;;;5080215;28;20746;-65
2023/09/22 06:50:08;;;;;;;748.58;656.97;;;;;;;;;;5065686;28;20432;-65
2023/09/22 06:52:36;;;;;;;755.33;655.65;;;;;;;;;;5072383;28;20425;-64
2023/09/22 06:55:08;;;;;;;751.85;652.40;;;;;;;;;;5076755;28;20799;-65
2023/09/22 06:57:42;;;;;;;749.85;644.40;;;;;;;;;;5074501;28;20427;-64
2023/09/22 07:00:18;;;;;;;749.95;650.25;;;;;;;;;;5071082;28;20434;-64
2023/09/22 07:02:47;;;;;;;757.42;673.42;;;;;;;;;;5064966;28;20435;-65
2023/09/22 07:05:15;;;;;;;754.40;664.92;;;;;;;;;;5075783;28;20423;-65
2023/09/22 07:07:42;;;;;;;740.00;628.13;;;;;;;;;;5080347;28;20513;-65
2023/09/22 07:10:09;;;;;;;731.10;511.38;;;;;;;;;;5072900;28;20433;-65
2023/09/22 07:12:43;;;;;;;722.22;553.08;;;;;;;;;;5072462;28;20431;-65
2023/09/22 07:15:11;;;;;;;720.92;536.15;;;;;;;;;;5075725;28;20457;-64
2023/09/22 07:17:38;;;;;;;723.53;582.75;;;;;;;;;;5076531;28;20424;-65
2023/09/22 07:20:08;;;;;;;732.47;617.37;;;;;;;;;;5065566;28;20435;-65
2023/09/22 07:22:36;;;;;;;770.88;688.35;;;;;;;;;;5083452;28;20421;-65
2023/09/22 07:25:05;;;;;;;788.92;705.85;;;;;;;;;;5084591;28;20509;-65
2023/09/22 07:27:33;;;;;;;777.60;695.33;;;;;;;;;;5078008;28;20439;-65
2023/09/22 07:30:00;;;;;;;782.20;699.75;;;;;;;;;;5083074;28;20432;-65
2023/09/22 07:32:27;;;;;;;803.03;719.67;;;;;;;;;;5082040;28;21167;-65
2023/09/22 07:34:54;;;;;;;43.58;40.58;;;;;;;;;;5087004;28;20487;-65
2023/09/22 07:37:22;;;;;;;13.23;12.45;;;;;;;;;;5080660;28;20518;-65
2023/09/22 07:39:49;;;;;;;603.70;550.70;;;;;;;;;;5079221;28;20435;-66
2023/09/22 07:42:19;;;;;;;653.90;595.85;;;;;;;;;;5083820;28;20476;-66
2023/09/22 07:44:46;;;;;;;671.05;607.47;;;;;;;;;;5074557;28;20419;-65
2023/09/22 07:47:14;;;;;;;729.03;625.42;;;;;;;;;;5075416;28;20508;-66
2023/09/22 07:49:45;;;;;;;694.50;627.63;;;;;;;;;;5084866;28;20438;-66
2023/09/22 07:52:20;;;;;;;791.90;636.97;;;;;;;;;;5084434;28;20517;-66
2023/09/22 07:54:48;;;;;;;829.65;653.80;;;;;;;;;;5077031;28;20444;-65
2023/09/22 07:57:19;;;;;;;862.17;625.15;;;;;;;;;;5076944;28;20430;-66
2023/09/22 07:59:46;;;;;;;861.58;636.47;;;;;;;;;;5088646;28;20425;-66
2023/09/22 08:02:14;;;;;;;856.92;612.75;;;;;;;;;;5079580;28;20434;-66
2023/09/22 08:04:42;;;;;;;864.83;650.97;;;;;;;;;;5084094;28;20462;-65
2023/09/22 08:07:09;;;;;;;862.67;631.80;;;;;;;;;;5079383;28;20513;-66
2023/09/22 08:09:37;;;;;;;863.55;629.20;;;;;;;;;;5079562;28;20422;-65
2023/09/22 08:12:05;;;;;;;860.90;611.50;;;;;;;;;;5077510;28;20425;-66
2023/09/22 08:14:34;;;;;;;871.63;632.83;;;;;;;;;;5077274;28;20447;-65
2023/09/22 08:17:25;;;;;;;880.72;665.45;;;;;;;;;;5069107;28;20415;-66
2023/09/22 08:19:53;;;;;;;888.63;692.40;;;;;;;;;;5081657;28;20433;-66
2023/09/22 08:22:20;;;;;;;894.92;684.20;;;;;;;;;;5079135;28;20457;-66
2023/09/22 08:24:50;;;;;;;908.88;706.80;;;;;;;;;;5077297;28;20437;-65
2023/09/22 08:27:17;;;;;;;897.75;656.65;;;;;;;;;;5085662;28;20422;-67
2023/09/22 08:29:49;;;;;;;897.88;651.97;;;;;;;;;;5082619;28;20902;-66
2023/09/22 08:32:23;;;;;;;897.97;658.47;;;;;;;;;;5081173;28;20720;-65
2023/09/22 08:34:51;;;;;;;901.50;688.25;;;;;;;;;;5083013;28;20993;-65
2023/09/22 08:37:18;;;;;;;894.45;654.80;;;;;;;;;;5063437;28;20520;-65
2023/09/22 08:39:45;;;;;;;897.70;674.08;;;;;;;;;;5077434;28;20424;-66
2023/09/22 08:42:12;;;;;;;902.90;697.72;;;;;;;;;;5083539;28;20498;-66
2023/09/22 08:44:45;;;;;;;900.80;705.58;;;;;;;;;;5085568;28;20892;-66
2023/09/22 08:47:15;;;;;;;884.08;658.53;;;;;;;;;;5070373;28;20432;-66
2023/09/22 08:49:45;;;;;;;884.47;660.30;;;;;;;;;;5081518;28;20522;-65
2023/09/22 08:52:12;;;;;;;897.25;709.45;;;;;;;;;;5083674;28;20429;-66
2023/09/22 08:54:42;;;;;;;896.28;696.53;;;;;;;;;;5080477;28;20436;-65
2023/09/22 08:57:11;;;;;;;910.03;728.40;;;;;;;;;;5081578;28;20481;-65
2023/09/22 08:59:41;;;;;;;909.97;720.60;;;;;;;;;;5081310;28;20437;-65
2023/09/22 09:02:11;;;;;;;907.90;720.90;;;;;;;;;;5077182;28;20429;-65
2023/09/22 09:04:41;;;;;;;906.17;714.70;;;;;;;;;;5075391;28;20433;-66
2023/09/22 09:07:08;;;;;;;908.70;723.17;;;;;;;;;;5073883;28;20427;-66
2023/09/22 09:09:47;;;;;;;910.45;729.35;;;;;;;;;;5080682;28;20425;-65
2023/09/22 09:12:15;;;;;;;906.88;712.17;;;;;;;;;;5076170;28;21152;-67
2023/09/22 09:14:47;;;;;;;897.80;681.08;;;;;;;;;;5080051;28;20430;-66
2023/09/22 09:17:23;;;;;;;896.78;698.22;;;;;;;;;;5081229;28;20428;-66
2023/09/22 09:20:01;;;;;;;904.67;718.97;;;;;;;;;;5080540;28;20924;-66
2023/09/22 09:22:37;;;;;;;902.33;708.47;;;;;;;;;;5079917;28;20422;-65
2023/09/22 09:25:09;;;;;;;866.72;647.42;;;;;;;;;;5073687;28;20929;-66
2023/09/22 09:27:39;;;;;;;69.03;64.38;;;;;;;;;;5072489;28;20431;-66
2023/09/22 09:30:08;;;;;;;141.00;128.82;;;;;;;;;;5075270;28;20424;-67
2023/09/22 09:32:36;;;;;;;468.97;425.33;;;;;;;;;;5080239;28;20517;-66
2023/09/22 09:35:04;;;;;;;983.97;794.85;;;;;;;;;;5075632;28;20485;-67
2023/09/22 09:37:35;;;;;;;992.08;787.88;;;;;;;;;;5071106;28;20441;-66
2023/09/22 09:40:03;;;;;;;995.58;797.80;;;;;;;;;;5068654;28;20449;-67
2023/09/22 09:42:33;;;;;;;982.70;780.50;;;;;;;;;;5074944;28;20603;-66
2023/09/22 09:45:03;;;;;;;965.40;758.80;;;;;;;;;;5068603;28;20981;-66
2023/09/22 09:47:35;;;;;;;973.13;763.70;;;;;;;;;;5078402;28;20798;-69
2023/09/22 09:50:07;;;;;;;966.28;762.00;;;;;;;;;;5084580;28;20491;-65
2023/09/22 09:52:37;;;;;;;893.42;684.42;;;;;;;;;;5082540;28;20876;-66
2023/09/22 09:55:14;;;;;;;897.33;694.70;;;;;;;;;;5081291;28;20430;-66
2023/09/22 09:57:45;;;;;;;929.93;711.53;;;;;;;;;;5081248;28;20426;-67
2023/09/22 10:00:19;;;;;;;916.13;711.63;;;;;;;;;;5078516;28;20472;-66
2023/09/22 10:02:47;;;;;;;914.42;711.92;;;;;;;;;;5065012;28;20429;-67
2023/09/22 10:05:16;;;;;;;911.90;715.15;;;;;;;;;;5071480;28;20519;-66
2023/09/22 10:07:51;;;;;;;910.43;699.53;;;;;;;;;;5076093;28;20437;-68
2023/09/22 10:10:21;;;;;;;905.42;691.75;;;;;;;;;;5066524;28;20909;-66
2023/09/22 10:12:49;;;;;;;912.70;715.20;;;;;;;;;;5051310;28;20439;-67
2023/09/22 10:15:16;;;;;;;901.90;697.28;;;;;;;;;;5083971;28;20425;-66
2023/09/22 10:17:55;;;;;;;899.78;689.50;;;;;;;;;;5071566;28;20435;-66
2023/09/22 10:20:42;;;;;;;914.67;721.25;;;;;;;;;;5077922;28;20523;-66
2023/09/22 10:23:27;;;;;;;910.80;719.13;;;;;;;;;;5076896;28;20432;-65
2023/09/22 10:26:20;;;;;;;903.42;693.25;;;;;;;;;;5080149;28;20435;-65
2023/09/22 10:28:47;;;;;;;908.85;702.58;;;;;;;;;;5074119;28;20928;-66
2023/09/22 10:31:18;;;;;;;915.20;695.63;;;;;;;;;;5078534;28;20842;-65
2023/09/22 10:33:46;;;;;;;918.78;700.60;;;;;;;;;;5077350;28;20423;-65
2023/09/22 10:36:36;;;;;;;911.20;698.83;;;;;;;;;;5079965;28;20448;-64
2023/09/22 10:39:05;;;;;;;909.67;703.08;;;;;;;;;;5076799;28;20438;-65
2023/09/22 10:41:33;;;;;;;903.13;693.67;;;;;;;;;;5083305;28;20451;-65
2023/09/22 10:44:06;;;;;;;900.85;694.95;;;;;;;;;;5073863;28;20489;-65
2023/09/22 10:46:33;;;;;;;896.70;696.92;;;;;;;;;;5081259;28;20509;-65
2023/09/22 10:49:03;;;;;;;895.15;715.15;;;;;;;;;;5082569;28;21026;-65
2023/09/22 10:51:43;;;;;;;893.38;673.40;;;;;;;;;;5078294;28;20539;-65
2023/09/22 10:54:11;;;;;;;979.97;775.53;;;;;;;;;;5083128;28;20434;-65
2023/09/22 10:56:39;;;;;;;947.65;760.58;;;;;;;;;;5084478;28;20431;-67
2023/09/22 10:59:06;;;;;;;948.78;774.45;;;;;;;;;;5078424;28;20504;-66
2023/09/22 11:01:44;;;;;;;931.33;761.80;;;;;;;;;;5079045;28;20423;-66
2023/09/22 11:04:11;;;;;;;976.08;800.17;;;;;;;;;;5078800;28;20426;-66
2023/09/22 11:06:48;;;;;;;946.85;771.92;;;;;;;;;;5081719;28;20435;-65
2023/09/22 11:09:15;;;;;;;927.85;756.17;;;;;;;;;;5079863;28;20422;-65
2023/09/22 11:11:45;;;;;;;915.63;732.35;;;;;;;;;;5074622;28;20435;-65
2023/09/22 11:14:13;;;;;;;898.87;711.13;;;;;;;;;;5079846;28;20520;-64
2023/09/22 11:16:50;;;;;;;887.00;686.15;;;;;;;;;;5084046;28;20461;-65
2023/09/22 11:19:18;;;;;;;895.88;722.53;;;;;;;;;;5082852;28;20456;-64
2023/09/22 11:21:47;;;;;;;906.72;740.47;;;;;;;;;;5080108;28;20439;-66
2023/09/22 11:24:14;;;;;;;891.03;726.30;;;;;;;;;;5082935;28;20433;-64
2023/09/22 11:26:42;;;;;;;865.90;686.05;;;;;;;;;;5079566;28;20436;-66
2023/09/22 11:29:09;;;;;;;963.28;780.70;;;;;;;;;;5076495;28;20517;-65
2023/09/22 11:31:48;;;;;;;2.35;0.70;;;;;;;;;;5080247;28;20429;-65
2023/09/22 11:34:23;;;;;;;1.88;0.57;;;;;;;;;;5078187;28;20438;-65
2023/09/22 11:36:51;;;;;;;1.92;0.60;;;;;;;;;;5079968;28;20549;-65
2023/09/22 11:39:29;;;;;;;0.88;0.60;;;;;;;;;;5085638;28;20826;-66
2023/09/22 11:42:01;;;;;;;2.00;0.57;;;;;;;;;;5078468;28;20586;-66
2023/09/22 11:44:28;;;;;;;1.17;0.60;;;;;;;;;;5087051;28;20430;-66
2023/09/22 11:46:55;;;;;;;0.70;0.60;;;;;;;;;;5082198;28;20425;-66
2023/09/22 11:49:23;;;;;;;1.80;0.70;;;;;;;;;;5085432;28;20471;-65
2023/09/22 11:51:57;;;;;;;0.90;0.60;;;;;;;;;;5076204;28;20431;-64
2023/09/22 11:54:26;;;;;;;0.73;0.50;;;;;;;;;;5088430;28;20438;-65
2023/09/22 11:56:59;;;;;;;1.17;0.60;;;;;;;;;;5075065;28;21755;-65
2023/09/22 11:59:31;;;;;;;2.28;0.90;;;;;;;;;;5079062;28;20430;-64
2023/09/22 12:02:00;;;;;;;0.60;0.50;;;;;;;;;;5092709;28;20435;-65
2023/09/22 12:04:34;;;;;;;0.90;0.68;;;;;;;;;;5074110;28;20528;-64
2023/09/22 12:07:02;;;;;;;0.70;0.70;;;;;;;;;;5084738;28;20422;-64
2023/09/22 12:09:32;;;;;;;1.38;0.60;;;;;;;;;;5084903;28;20434;-64
2023/09/22 12:11:59;;;;;;;1.02;0.50;;;;;;;;;;5078408;28;21682;-64
2023/09/22 12:14:26;;;;;;;1.23;0.70;;;;;;;;;;5078877;28;20520;-65
2023/09/22 12:16:54;;;;;;;1.10;0.60;;;;;;;;;;5080721;28;20503;-66
2023/09/22 12:19:26;;;;;;;1.13;0.68;;;;;;;;;;5084973;28;20433;-64
2023/09/22 12:21:53;;;;;;;1.20;0.60;;;;;;;;;;5076570;28;20493;-64
2023/09/22 12:24:20;;;;;;;1.80;0.55;;;;;;;;;;5079603;28;20980;-64
2023/09/22 12:26:50;;;;;;;0.57;0.57;;;;;;;;;;5080407;28;20504;-65
2023/09/22 12:29:17;;;;;;;1.58;0.68;;;;;;;;;;5075027;28;20435;-65
2023/09/22 12:31:45;;;;;;;0.80;0.73;;;;;;;;;;5088236;28;20426;-64
2023/09/22 12:34:12;;;;;;;1.30;0.60;;;;;;;;;;5084587;28;20426;-66
2023/09/22 12:36:43;;;;;;;2.15;0.60;;;;;;;;;;5085114;28;20569;-64
2023/09/22 12:39:11;;;;;;;2.42;2.22;;;;;;;;;;5083215;28;20433;-64
2023/09/22 12:41:38;;;;;;;609.57;555.87;;;;;;;;;;5081403;28;20422;-64
2023/09/22 12:44:05;;;;;;;820.92;748.47;;;;;;;;;;5074547;28;20427;-64
2023/09/22 12:46:32;;;;;;;438.33;398.98;;;;;;;;;;5069005;28;20538;-64
2023/09/22 12:49:00;;;;;;;193.50;178.20;;;;;;;;;;5083420;28;20429;-64
2023/09/22 12:51:27;;;;;;;585.55;531.83;;;;;;;;;;5074405;28;20431;-64
2023/09/22 12:53:55;;;;;;;960.97;872.25;;;;;;;;;;5074649;28;20501;-64
2023/09/22 12:56:24;;;;;;;935.47;846.10;;;;;;;;;;5081246;28;20451;-64
2023/09/22 12:58:52;;;;;;;968.15;861.60;;;;;;;;;;5081297;28;20792;-64
2023/09/22 13:01:24;;;;;;;977.85;853.10;;;;;;;;;;5072906;28;20428;-63
2023/09/22 13:03:51;;;;;;;940.40;838.25;;;;;;;;;;5079734;28;20956;-64
2023/09/22 13:06:19;;;;;;;893.75;805.20;;;;;;;;;;5083080;28;20425;-64
2023/09/22 13:09:00;;;;;;;932.13;802.67;;;;;;;;;;5077580;28;20456;-65
2023/09/22 13:11:27;;;;;;;960.38;807.42;;;;;;;;;;5078181;28;20498;-64
2023/09/22 13:13:57;;;;;;;916.00;812.00;;;;;;;;;;5070999;28;21133;-64
2023/09/22 13:16:25;;;;;;;979.22;823.97;;;;;;;;;;5077008;28;20425;-64
2023/09/22 13:18:52;;;;;;;1009.10;840.90;;;;;;;;;;5080973;28;21004;-65
2023/09/22 13:21:25;;;;;;;1009.45;839.97;;;;;;;;;;5066662;28;20498;-64
2023/09/22 13:23:52;;;;;;;1003.00;828.88;;;;;;;;;;5057192;28;20432;-64
2023/09/22 13:26:26;;;;;;;999.80;823.67;;;;;;;;;;5074038;28;20443;-63
2023/09/22 13:28:56;;;;;;;993.13;811.40;;;;;;;;;;5081597;28;20426;-63
2023/09/22 13:31:25;;;;;;;982.08;806.40;;;;;;;;;;5079680;28;20520;-63
2023/09/22 13:33:53;;;;;;;981.78;789.33;;;;;;;;;;5072677;28;20426;-63
2023/09/22 13:36:21;;;;;;;977.40;780.33;;;;;;;;;;5087582;28;20514;-63
2023/09/22 13:38:53;;;;;;;971.42;776.60;;;;;;;;;;5081486;28;20505;-65
2023/09/22 13:41:20;;;;;;;965.13;766.80;;;;;;;;;;5084281;28;20474;-63
2023/09/22 13:43:50;;;;;;;943.40;778.25;;;;;;;;;;5082090;28;20429;-64
2023/09/22 13:46:18;;;;;;;968.50;782.70;;;;;;;;;;5084254;28;20454;-64
2023/09/22 13:48:45;;;;;;;961.17;770.60;;;;;;;;;;5074926;28;20429;-65
2023/09/22 13:51:13;;;;;;;952.40;754.73;;;;;;;;;;5073289;28;20432;-64
2023/09/22 13:53:40;;;;;;;948.40;745.58;;;;;;;;;;5070592;28;20516;-64
2023/09/22 13:56:17;;;;;;;942.33;733.38;;;;;;;;;;5079992;28;20508;-64
2023/09/22 13:58:48;;;;;;;936.83;731.17;;;;;;;;;;5073653;28;20472;-64
2023/09/22 14:01:15;;;;;;;935.22;716.45;;;;;;;;;;5075217;28;20432;-64
2023/09/22 14:03:44;;;;;;;927.60;714.35;;;;;;;;;;5076376;28;20423;-65
2023/09/22 14:06:15;;;;;;;903.42;679.80;;;;;;;;;;5072802;28;20427;-65
2023/09/22 14:08:43;;;;;;;886.45;675.92;;;;;;;;;;5067704;28;20450;-65
2023/09/22 14:11:10;;;;;;;839.22;634.90;;;;;;;;;;5073701;28;21129;-65